Pagina principală
METAR-TAF:

METAR-TAF

Aeroporturi :

Normanton, Australia

Latitudine: 17-41-06S, longitudine: 141-04-12E, elevație: 22 m

Observații meteo curente

Raportul a fost făcut în urmă cu 40 de minute, la 08:00 UTC
Vânt 6 kt de la Est/Sud-est
Temperatură 34°C
Umiditate 39%
Presiune 1007 hPa
Vizibilitate de 10 km sau mai mult

METAR: YNTN 290800Z AUTO 11006KT 9999 // NCD 34/18 Q1007

Ora: 18:40 (08:40 UTC)


TAF: lipsă

Observații și prognoze meteo pentru peste 4.000 de aeroporturi (rapoarte METAR și TAF).

Stațiile disponibile sunt reprezentate pe hartă prin puncte galbene și roșii.

Țineți indicatorul mouse-ului pe punctul dorit pentru a vedea denumirea stației.

Apoi, faceți clic pentru a vedea observațiile și prognozele meteorologice.

Pentru a schimba harta: Pentru mărire, faceți clic pe butoanele verzi cu cruce neagră; pentru micșorare, pe butonul verde cu o liniuță; pentru hărți învecinate, pe săgețile verzi.


METAR-TAF: